Time;durP1;ratioP1;P1;durP2;ratioP2;P2;SDS_P1;SDS_P2;PMS_P1;PMS_P2;Temp;Humidity;BMP_temperature;BMP_pressure;BME280_temperature;BME280_humidity;BME280_pressure;Samples;Min_cycle;Max_cycle;Signal;HPM_P1;HPM_P2
2022/01/19 00:02:22;;;;;;;9.02;8.10;;;22.10;66.20;;;;;;6231451;28;89918;-70
2022/01/19 00:05:24;;;;;;;9.65;8.63;;;22.00;66.20;;;;;;6231482;28;89042;-70
2022/01/19 00:08:29;;;;;;;9.02;8.13;;;22.00;66.20;;;;;;6229747;28;89090;-70
2022/01/19 00:11:31;;;;;;;9.48;8.13;;;22.00;66.20;;;;;;6230735;28;88037;-69
2022/01/19 00:14:33;;;;;;;9.07;7.97;;;21.90;66.20;;;;;;6228679;28;89068;-70
2022/01/19 00:17:35;;;;;;;9.00;8.10;;;22.00;66.30;;;;;;6231504;28;88337;-68
2022/01/19 00:20:37;;;;;;;9.13;8.18;;;21.90;66.30;;;;;;6216769;28;88817;-70
2022/01/19 00:23:41;;;;;;;8.55;7.65;;;21.90;66.30;;;;;;6231160;28;88279;-70
2022/01/19 00:26:43;;;;;;;8.70;7.80;;;21.90;66.40;;;;;;6227461;28;90065;-70
2022/01/19 00:29:45;;;;;;;8.10;7.28;;;21.90;66.40;;;;;;6223213;28;89054;-70
2022/01/19 00:32:47;;;;;;;8.82;7.90;;;21.80;66.40;;;;;;6222823;28;87828;-71
2022/01/19 00:35:50;;;;;;;8.60;7.72;;;21.80;66.30;;;;;;6229690;28;89067;-70
2022/01/19 00:38:53;;;;;;;9.02;7.82;;;21.80;66.40;;;;;;6231220;28;87941;-69
2022/01/19 00:41:56;;;;;;;8.20;7.30;;;21.80;66.40;;;;;;6227621;28;89440;-70
2022/01/19 00:44:58;;;;;;;7.90;7.10;;;21.80;66.40;;;;;;6231421;28;89151;-71
2022/01/19 00:48:00;;;;;;;8.30;7.35;;;21.80;66.40;;;;;;6230049;28;88200;-70
2022/01/19 00:51:02;;;;;;;7.95;7.10;;;21.80;66.50;;;;;;6228826;28;88324;-70
2022/01/19 00:54:06;;;;;;;9.18;7.70;;;21.80;66.40;;;;;;6230532;28;89091;-70
2022/01/19 00:57:08;;;;;;;8.20;7.40;;;21.80;66.40;;;;;;6230001;28;90505;-70
2022/01/19 01:00:13;;;;;;;8.30;7.50;;;21.70;66.40;;;;;;6212400;28;89362;-70
2022/01/19 01:03:15;;;;;;;8.90;7.43;;;21.70;66.40;;;;;;6225585;28;89962;-70
2022/01/19 01:06:17;;;;;;;7.97;7.18;;;21.70;66.40;;;;;;6230594;28;89098;-70
2022/01/19 01:09:21;;;;;;;7.90;7.10;;;21.70;66.40;;;;;;6231689;28;89036;-69
2022/01/19 01:12:30;;;;;;;8.55;7.63;;;21.70;66.40;;;;;;6213955;28;89037;-70
2022/01/19 01:15:47;;;;;;;8.18;7.38;;;21.70;66.50;;;;;;6228715;28;89000;-70
2022/01/19 01:18:49;;;;;;;8.25;7.45;;;21.60;66.40;;;;;;6221657;28;87351;-71
2022/01/19 01:21:51;;;;;;;8.30;7.50;;;21.70;66.50;;;;;;6233518;28;89181;-69
2022/01/19 01:24:54;;;;;;;8.82;7.93;;;21.70;66.60;;;;;;6227379;28;89067;-69
2022/01/19 01:27:56;;;;;;;8.73;7.82;;;21.60;66.40;;;;;;6234137;28;90067;-69
2022/01/19 01:30:59;;;;;;;8.52;7.70;;;21.60;66.50;;;;;;6231283;28;87994;-69
2022/01/19 01:34:01;;;;;;;9.70;8.50;;;21.60;66.60;;;;;;6220767;28;88949;-70
2022/01/19 01:37:03;;;;;;;9.23;7.75;;;21.60;66.50;;;;;;6234201;28;88063;-70
2022/01/19 01:40:09;;;;;;;9.48;8.23;;;21.60;66.50;;;;;;6232680;28;89458;-70
2022/01/19 01:43:11;;;;;;;9.85;8.43;;;21.60;66.50;;;;;;6234901;28;87949;-71
2022/01/19 01:46:25;;;;;;;9.75;8.77;;;21.60;66.50;;;;;;6223358;28;89994;-68
2022/01/19 01:49:40;;;;;;;9.75;8.70;;;21.60;66.50;;;;;;6236029;28;88271;-68
2022/01/19 01:56:07;;;;;;;9.70;8.70;;;21.60;66.60;;;;;;6229229;28;87041;-70
2022/01/19 01:59:10;;;;;;;9.75;8.75;;;21.50;66.40;;;;;;6233500;28;88764;-71
2022/01/19 02:02:12;;;;;;;9.48;8.48;;;21.50;66.40;;;;;;6232155;28;89036;-70
2022/01/19 02:05:14;;;;;;;10.23;9.02;;;21.50;66.40;;;;;;6227912;28;89053;-69
2022/01/19 02:08:20;;;;;;;9.68;8.68;;;21.50;66.40;;;;;;6219386;28;87980;-71
2022/01/19 02:21:42;;;;;;;10.05;9.00;;;21.40;66.40;;;;;;6233398;28;87189;-70
2022/01/19 02:24:45;;;;;;;10.38;9.27;;;21.50;66.40;;;;;;6232061;28;89173;-71
2022/01/19 02:41:13;;;;;;;9.52;8.52;;;21.40;66.40;;;;;;6232973;28;87485;-70
2022/01/19 02:44:29;;;;;;;10.38;9.07;;;21.40;66.50;;;;;;6232183;28;88119;-68
2022/01/19 02:50:50;;;;;;;10.15;9.15;;;21.40;66.50;;;;;;6231260;28;87635;-70
2022/01/19 02:53:54;;;;;;;10.00;9.00;;;21.40;66.50;;;;;;6233629;28;88475;-69
2022/01/19 02:57:00;;;;;;;10.13;8.93;;;21.40;66.50;;;;;;6227360;28;89057;-70
2022/01/19 03:09:59;;;;;;;9.80;8.80;;;21.30;66.40;;;;;;6222638;28;87450;-70
2022/01/19 03:13:01;;;;;;;10.15;9.15;;;21.30;66.50;;;;;;6229890;28;87749;-70
2022/01/19 03:16:03;;;;;;;10.10;9.10;;;21.30;66.50;;;;;;6230948;28;88279;-70
2022/01/19 03:19:07;;;;;;;9.65;8.60;;;21.30;66.50;;;;;;6227758;28;89134;-71
2022/01/19 03:22:09;;;;;;;10.05;8.88;;;21.30;66.50;;;;;;6218571;28;89425;-70
2022/01/19 03:25:13;;;;;;;10.32;8.98;;;21.30;66.50;;;;;;6227580;28;88305;-70
2022/01/19 03:28:16;;;;;;;9.35;8.35;;;21.30;66.50;;;;;;6232799;28;88963;-69
2022/01/19 03:31:18;;;;;;;9.70;8.70;;;21.30;66.50;;;;;;6231389;28;89049;-70
2022/01/19 03:34:20;;;;;;;9.43;8.43;;;21.20;66.50;;;;;;6230677;28;89906;-69
2022/01/19 03:37:22;;;;;;;10.32;8.77;;;21.20;66.50;;;;;;6225601;28;89926;-70
2022/01/19 03:40:26;;;;;;;10.00;9.00;;;21.20;66.50;;;;;;6216636;28;89030;-70
2022/01/19 03:43:28;;;;;;;9.60;7.90;;;21.20;66.50;;;;;;6225578;28;87753;-70
2022/01/19 03:46:33;;;;;;;9.70;8.75;;;21.20;66.50;;;;;;6227020;28;88377;-70
2022/01/19 03:49:35;;;;;;;9.00;8.10;;;21.20;66.50;;;;;;6230129;28;88147;-70
2022/01/19 03:52:37;;;;;;;9.65;8.35;;;21.20;66.50;;;;;;6219785;28;88143;-69
2022/01/19 03:55:41;;;;;;;8.98;8.07;;;21.20;66.50;;;;;;6228671;28;87250;-70
2022/01/19 03:58:44;;;;;;;8.70;7.80;;;21.20;66.60;;;;;;6230880;28;89038;-70
2022/01/19 04:01:46;;;;;;;8.90;8.00;;;21.20;66.60;;;;;;6231668;28;89064;-69
2022/01/19 04:04:53;;;;;;;8.88;7.80;;;21.20;66.50;;;;;;6222637;28;90228;-69
2022/01/19 04:07:55;;;;;;;9.15;8.25;;;21.20;66.50;;;;;;6226694;28;89111;-71
2022/01/19 04:10:58;;;;;;;8.95;8.05;;;21.20;66.50;;;;;;6232871;28;88113;-70
2022/01/19 04:17:18;;;;;;;8.85;7.95;;;21.10;66.20;;;;;;6224185;28;88564;-70
2022/01/19 04:20:21;;;;;;;8.40;7.60;;;21.20;66.30;;;;;;6219219;28;88971;-71
2022/01/19 04:23:24;;;;;;;8.65;7.75;;;21.20;66.20;;;;;;6217768;28;89142;-68
2022/01/19 04:26:27;;;;;;;8.35;7.45;;;21.20;66.20;;;;;;6223764;28;88247;-70
2022/01/19 04:29:29;;;;;;;8.40;7.50;;;21.20;66.20;;;;;;6224449;28;89386;-70
2022/01/19 04:32:37;;;;;;;8.23;7.43;;;21.20;66.10;;;;;;6231588;28;89138;-70
2022/01/19 04:35:49;;;;;;;8.57;7.65;;;21.20;66.10;;;;;;6227554;28;90494;-70
2022/01/19 04:45:57;;;;;;;7.93;7.13;;;21.30;66.00;;;;;;6217707;28;87331;-70
2022/01/19 04:54:06;;;;;;;7.13;6.43;;;21.30;65.90;;;;;;6220690;28;89492;-70
2022/01/19 05:02:42;;;;;;;6.68;6.05;;;21.40;65.70;;;;;;6234204;28;87187;-69
2022/01/19 05:05:48;;;;;;;7.80;7.00;;;21.40;65.70;;;;;;6233618;28;89115;-69
2022/01/19 05:08:58;;;;;;;7.63;6.65;;;21.50;65.70;;;;;;6235757;28;90121;-69
2022/01/19 05:15:21;;;;;;;7.32;6.50;;;21.50;65.50;;;;;;6232997;28;87064;-70
2022/01/19 05:18:23;;;;;;;7.55;6.53;;;21.50;65.50;;;;;;6234002;28;89091;-69
2022/01/19 05:21:26;;;;;;;7.07;6.38;;;21.50;65.50;;;;;;6234198;28;87809;-71
2022/01/19 05:24:28;;;;;;;7.03;6.22;;;21.50;65.50;;;;;;6234073;28;88598;-70
2022/01/19 05:27:30;;;;;;;7.13;6.43;;;21.60;65.50;;;;;;6235156;28;89074;-70
2022/01/19 05:30:33;;;;;;;7.35;6.55;;;21.60;65.50;;;;;;6234950;28;87590;-69
2022/01/19 05:33:36;;;;;;;6.43;5.82;;;21.50;65.40;;;;;;6234189;28;88060;-70
2022/01/19 05:36:38;;;;;;;6.72;6.03;;;21.50;65.50;;;;;;6235422;28;89024;-70
2022/01/19 05:39:40;;;;;;;7.00;5.90;;;21.60;65.50;;;;;;6227461;28;90054;-69
2022/01/19 05:42:42;;;;;;;6.40;5.78;;;21.50;65.40;;;;;;6232954;28;89146;-70
2022/01/19 05:45:46;;;;;;;6.70;6.10;;;21.60;65.50;;;;;;6233295;28;89532;-70
2022/01/19 05:48:48;;;;;;;6.75;6.07;;;21.50;65.40;;;;;;6230140;28;88937;-70
2022/01/19 05:51:50;;;;;;;6.85;6.15;;;21.60;65.50;;;;;;6229000;28;87812;-69
2022/01/19 05:54:52;;;;;;;6.30;5.60;;;21.60;65.70;;;;;;6228949;28;89303;-68
2022/01/19 05:57:54;;;;;;;6.90;6.13;;;21.60;65.70;;;;;;6225715;28;89093;-67
2022/01/19 06:00:58;;;;;;;7.20;6.10;;;21.60;65.70;;;;;;6233547;28;88388;-68
2022/01/19 06:04:00;;;;;;;6.45;5.85;;;21.60;66.60;;;;;;6229608;28;88090;-68
2022/01/19 06:07:03;;;;;;;6.18;5.57;;;21.70;65.90;;;;;;6233514;28;89064;-68
2022/01/19 06:10:09;;;;;;;6.25;5.65;;;21.60;65.80;;;;;;6219304;28;90515;-68
2022/01/19 06:13:14;;;;;;;6.40;5.53;;;21.60;65.70;;;;;;6227846;28;89058;-69
2022/01/19 06:16:17;;;;;;;6.10;5.38;;;21.60;65.70;;;;;;6223309;28;88971;-69
2022/01/19 06:19:20;;;;;;;7.95;5.60;;;21.70;65.70;;;;;;6224363;28;89219;-69
2022/01/19 06:22:22;;;;;;;6.10;5.55;;;21.70;65.70;;;;;;6227791;28;89168;-68
2022/01/19 06:25:24;;;;;;;6.85;5.53;;;21.70;65.70;;;;;;6221308;28;89160;-68
2022/01/19 06:28:26;;;;;;;6.18;5.22;;;21.70;65.60;;;;;;6223997;28;89109;-68
2022/01/19 06:31:29;;;;;;;6.95;5.70;;;21.70;65.60;;;;;;6228819;28;86988;-69
2022/01/19 06:34:31;;;;;;;8.25;5.40;;;21.80;65.70;;;;;;6229467;28;89055;-68
2022/01/19 06:37:34;;;;;;;7.97;5.68;;;21.70;65.50;;;;;;6233103;28;88035;-69
2022/01/19 06:40:36;;;;;;;6.75;5.22;;;21.80;65.50;;;;;;6231016;28;89972;-69
2022/01/19 06:43:38;;;;;;;7.07;5.32;;;21.80;65.50;;;;;;6218772;28;89108;-68
2022/01/19 06:46:42;;;;;;;5.90;5.10;;;21.80;65.50;;;;;;6184344;28;1242370;-69
2022/01/19 06:49:44;;;;;;;5.75;5.15;;;21.80;65.40;;;;;;6232264;28;88314;-68
2022/01/19 06:52:47;;;;;;;5.88;5.00;;;21.90;65.40;;;;;;6219109;28;88406;-69
2022/01/19 06:55:49;;;;;;;5.93;5.22;;;21.90;65.40;;;;;;6231864;28;89105;-69
2022/01/19 06:58:51;;;;;;;6.03;5.13;;;21.90;65.30;;;;;;6219115;28;89128;-68
2022/01/19 07:01:54;;;;;;;5.43;4.93;;;21.90;65.20;;;;;;6231102;28;88331;-69
2022/01/19 07:04:56;;;;;;;6.13;5.07;;;21.90;65.20;;;;;;6231968;28;89352;-69
2022/01/19 07:07:58;;;;;;;5.47;4.82;;;21.90;65.10;;;;;;6232824;28;88028;-69
2022/01/19 07:11:00;;;;;;;6.28;4.82;;;22.00;65.10;;;;;;6231211;28;91278;-69
2022/01/19 07:14:02;;;;;;;5.68;5.03;;;22.00;65.10;;;;;;6215744;28;86960;-68
2022/01/19 07:17:06;;;;;;;5.80;4.90;;;22.00;65.90;;;;;;6226104;28;89007;-69
2022/01/19 07:20:09;;;;;;;5.90;5.00;;;22.00;65.00;;;;;;6222283;28;87875;-68
2022/01/19 07:23:11;;;;;;;5.70;4.93;;;22.00;65.00;;;;;;6231318;28;88001;-69
2022/01/19 07:26:13;;;;;;;5.38;4.60;;;22.00;64.90;;;;;;6233405;28;88214;-69
2022/01/19 07:29:15;;;;;;;5.47;4.85;;;22.00;64.90;;;;;;6232707;28;87809;-68
2022/01/19 07:32:20;;;;;;;5.90;4.82;;;22.10;65.00;;;;;;6228749;28;88207;-69
2022/01/19 07:35:22;;;;;;;5.53;4.68;;;22.10;64.90;;;;;;6222823;28;89329;-69
2022/01/19 07:38:24;;;;;;;4.90;4.40;;;22.10;64.90;;;;;;6229069;28;87925;-69
2022/01/19 07:41:26;;;;;;;5.43;4.40;;;22.10;64.90;;;;;;6232358;28;89935;-68
2022/01/19 07:44:27;;;;;;;4.90;4.43;;;22.10;64.80;;;;;;6229489;28;89058;-68
2022/01/19 07:47:31;;;;;;;5.18;4.35;;;22.20;64.90;;;;;;6223673;28;87980;-69
2022/01/19 07:50:52;;;;;;;5.03;4.40;;;22.20;64.80;;;;;;6230596;28;87883;-69
2022/01/19 07:53:54;;;;;;;5.05;4.45;;;22.10;64.70;;;;;;6232412;28;88948;-68
2022/01/19 07:56:56;;;;;;;5.30;4.47;;;22.20;64.70;;;;;;6231523;28;89107;-67
2022/01/19 07:59:58;;;;;;;4.82;4.30;;;22.20;64.60;;;;;;6229727;28;88289;-68
2022/01/19 08:03:01;;;;;;;5.35;4.68;;;22.20;64.70;;;;;;6223368;28;88357;-68
2022/01/19 08:06:03;;;;;;;4.82;4.00;;;22.20;64.60;;;;;;6231677;28;89134;-69
2022/01/19 08:09:07;;;;;;;4.70;4.20;;;22.20;64.50;;;;;;6221060;28;88925;-69
2022/01/19 08:12:10;;;;;;;4.43;3.85;;;22.30;64.60;;;;;;6229694;28;90079;-67
2022/01/19 08:15:12;;;;;;;4.95;4.32;;;22.30;64.60;;;;;;6230429;28;89282;-68
2022/01/19 08:18:15;;;;;;;4.80;4.07;;;22.20;64.50;;;;;;6228440;28;89114;-69
2022/01/19 08:21:17;;;;;;;4.53;4.10;;;22.30;64.50;;;;;;6231962;28;89129;-69
2022/01/19 08:24:19;;;;;;;4.90;3.97;;;22.30;64.50;;;;;;6230594;28;89266;-68
2022/01/19 08:27:21;;;;;;;4.63;4.10;;;22.30;64.50;;;;;;6222215;28;89121;-68
2022/01/19 08:30:23;;;;;;;5.10;4.50;;;22.30;64.40;;;;;;6223015;28;89164;-68
2022/01/19 08:33:27;;;;;;;4.05;3.55;;;22.30;64.50;;;;;;6230966;28;87238;-69
2022/01/19 08:36:29;;;;;;;4.47;3.85;;;22.40;65.40;;;;;;6229327;28;89386;-68
2022/01/19 08:39:31;;;;;;;4.32;3.63;;;22.40;64.50;;;;;;6228000;28;89078;-68
2022/01/19 08:42:33;;;;;;;4.30;3.90;;;22.40;64.50;;;;;;6218651;28;90008;-68
2022/01/19 08:45:35;;;;;;;4.30;3.85;;;22.40;64.50;;;;;;6228065;28;89173;-68
2022/01/19 08:48:39;;;;;;;3.97;3.67;;;22.40;64.50;;;;;;6228696;28;89093;-69
2022/01/19 08:51:41;;;;;;;4.18;3.78;;;22.40;64.50;;;;;;6231456;28;89362;-68
2022/01/19 08:54:45;;;;;;;4.53;3.70;;;22.40;64.40;;;;;;6229398;28;87757;-68
2022/01/19 08:57:47;;;;;;;4.88;4.00;;;22.40;64.40;;;;;;6228438;28;88061;-69
2022/01/19 09:00:49;;;;;;;4.30;3.90;;;22.50;64.50;;;;;;6230340;28;88744;-69
2022/01/19 09:03:53;;;;;;;4.38;3.67;;;22.50;64.40;;;;;;6230002;28;88522;-69
2022/01/19 09:06:55;;;;;;;3.80;3.47;;;22.50;64.40;;;;;;6220166;28;90090;-69
2022/01/19 09:09:57;;;;;;;4.00;3.60;;;22.50;64.40;;;;;;6231075;28;90546;-68
2022/01/19 09:12:59;;;;;;;4.30;3.67;;;22.50;64.40;;;;;;6215659;28;88947;-68
2022/01/19 09:16:02;;;;;;;4.15;3.50;;;22.50;64.40;;;;;;6231699;28;89347;-68
2022/01/19 09:19:07;;;;;;;3.92;3.50;;;22.50;64.40;;;;;;6229991;28;89142;-69
2022/01/19 09:22:11;;;;;;;3.88;3.58;;;22.50;64.40;;;;;;6231765;28;88292;-69
2022/01/19 09:25:13;;;;;;;3.80;3.50;;;22.50;64.30;;;;;;6225889;28;89076;-69
2022/01/19 09:28:15;;;;;;;4.40;3.63;;;22.50;64.30;;;;;;6216584;28;87968;-67
2022/01/19 09:31:19;;;;;;;3.90;3.47;;;22.50;64.40;;;;;;6225016;28;88772;-69
2022/01/19 09:34:22;;;;;;;3.83;3.42;;;22.50;64.30;;;;;;6231944;28;88566;-68
2022/01/19 09:37:25;;;;;;;3.83;3.40;;;22.50;64.20;;;;;;6219969;28;89066;-68
2022/01/19 09:40:27;;;;;;;3.88;3.33;;;22.60;64.30;;;;;;6221913;28;89074;-69
2022/01/19 09:43:29;;;;;;;3.85;3.45;;;22.60;64.20;;;;;;6235009;28;89748;-68
2022/01/19 09:46:31;;;;;;;4.90;3.50;;;22.60;64.20;;;;;;6230064;28;89215;-68
2022/01/19 09:49:35;;;;;;;3.50;3.20;;;22.60;64.20;;;;;;6234063;28;88922;-68
2022/01/19 09:52:39;;;;;;;3.95;3.30;;;22.60;64.20;;;;;;6235021;28;89009;-68
2022/01/19 09:55:41;;;;;;;3.88;3.08;;;22.60;64.20;;;;;;6220345;28;89042;-67
2022/01/19 09:58:44;;;;;;;3.83;3.40;;;22.70;64.20;;;;;;6231947;28;89074;-68
2022/01/19 10:01:53;;;;;;;3.30;3.00;;;22.60;64.20;;;;;;6232234;28;87955;-68
2022/01/19 10:05:06;;;;;;;4.90;3.30;;;22.70;64.20;;;;;;6229821;28;88338;-68
2022/01/19 10:08:09;;;;;;;3.90;3.22;;;22.70;64.20;;;;;;6232477;28;89189;-68
2022/01/19 10:11:16;;;;;;;3.67;3.30;;;22.70;64.20;;;;;;6223289;28;89174;-68
2022/01/19 10:17:56;;;;;;;3.58;3.00;;;22.70;64.20;;;;;;6165470;28;88032;-69
2022/01/19 10:21:12;;;;;;;3.20;2.90;;;22.70;64.20;;;;;;6154989;28;88549;-69
2022/01/19 10:24:14;;;;;;;4.05;3.20;;;22.70;64.20;;;;;;6214195;28;89382;-69
2022/01/19 10:27:29;;;;;;;3.67;3.05;;;22.70;64.20;;;;;;6222131;28;89403;-67
2022/01/19 10:30:30;;;;;;;3.33;3.00;;;22.70;64.20;;;;;;6224518;28;88899;-69
2022/01/19 10:33:32;;;;;;;3.75;3.08;;;22.70;64.20;;;;;;6228726;28;89076;-69
2022/01/19 10:36:44;;;;;;;3.60;2.85;;;22.70;64.20;;;;;;6232353;28;87258;-68
2022/01/19 10:39:48;;;;;;;3.75;3.35;;;22.80;64.20;;;;;;6220419;28;88765;-69
2022/01/19 10:42:50;;;;;;;3.35;2.85;;;22.80;64.20;;;;;;6221246;28;89007;-69
2022/01/19 10:45:52;;;;;;;3.15;2.80;;;22.80;64.20;;;;;;6217335;28;89940;-69
2022/01/19 10:48:59;;;;;;;3.75;3.00;;;22.80;64.20;;;;;;6232268;28;88952;-69
2022/01/19 10:52:03;;;;;;;4.38;3.30;;;22.80;64.20;;;;;;6232638;28;89079;-69
2022/01/19 10:55:09;;;;;;;3.10;2.80;;;22.80;64.20;;;;;;6231471;28;89614;-69
2022/01/19 10:58:13;;;;;;;2.83;2.63;;;22.80;64.20;;;;;;6233024;28;89089;-68
2022/01/19 11:01:15;;;;;;;3.30;3.00;;;22.80;64.20;;;;;;6232921;28;89089;-69
2022/01/19 11:04:18;;;;;;;3.25;2.67;;;22.90;64.20;;;;;;6232923;28;89476;-69
2022/01/19 11:07:22;;;;;;;3.30;2.90;;;22.80;64.20;;;;;;6233882;28;87291;-69
2022/01/19 11:10:25;;;;;;;3.45;3.08;;;22.80;64.20;;;;;;6231600;28;88894;-69
2022/01/19 11:13:32;;;;;;;3.33;2.92;;;22.80;64.20;;;;;;6232738;28;89078;-69
2022/01/19 11:16:33;;;;;;;3.22;2.90;;;22.80;64.30;;;;;;6225791;28;89980;-69
2022/01/19 11:19:38;;;;;;;3.25;2.80;;;22.80;64.40;;;;;;6231949;28;89524;-69
2022/01/19 11:23:00;;;;;;;2.60;2.35;;;22.80;64.30;;;;;;6231701;28;89109;-69
2022/01/19 11:26:05;;;;;;;2.97;2.58;;;22.70;64.30;;;;;;6219188;28;89094;-69
2022/01/19 11:29:18;;;;;;;4.15;2.90;;;22.70;64.30;;;;;;6228137;28;89530;-69
2022/01/19 11:32:21;;;;;;;3.20;2.90;;;22.80;64.40;;;;;;6221286;28;88221;-69
2022/01/19 11:35:33;;;;;;;3.10;2.80;;;22.80;64.40;;;;;;6229020;28;89170;-69
2022/01/19 11:38:42;;;;;;;3.00;2.67;;;22.80;64.40;;;;;;6231912;28;88228;-69
2022/01/19 11:41:48;;;;;;;3.70;2.70;;;22.80;64.40;;;;;;6226949;28;89106;-69
2022/01/19 11:44:51;;;;;;;2.63;2.42;;;22.80;64.40;;;;;;6223230;28;89060;-69
2022/01/19 11:48:13;;;;;;;2.75;2.53;;;22.80;64.40;;;;;;6223601;28;90114;-69
2022/01/19 11:51:26;;;;;;;2.90;2.60;;;22.80;65.20;;;;;;6221814;28;89099;-69
2022/01/19 11:54:33;;;;;;;2.85;2.55;;;22.80;64.40;;;;;;6222163;28;89307;-69
2022/01/19 11:57:35;;;;;;;2.80;2.50;;;22.90;64.40;;;;;;6217486;28;89014;-69
2022/01/19 12:00:37;;;;;;;2.85;2.55;;;22.90;64.40;;;;;;6222541;28;89044;-69
2022/01/19 12:03:42;;;;;;;2.58;2.30;;;22.90;64.40;;;;;;6229314;28;89614;-69
2022/01/19 12:06:44;;;;;;;2.60;2.40;;;22.90;64.40;;;;;;6231259;28;89029;-69
2022/01/19 12:10:04;;;;;;;3.22;2.47;;;22.90;64.30;;;;;;6228894;28;88292;-69
2022/01/19 12:13:32;;;;;;;2.72;2.38;;;22.90;64.40;;;;;;6223102;28;89263;-69
2022/01/19 12:20:01;;;;;;;3.50;2.30;;;23.00;64.40;;;;;;6208244;28;89707;-68
2022/01/19 12:23:24;;;;;;;2.50;2.30;;;22.90;64.40;;;;;;6217197;28;89585;-68
2022/01/19 12:26:48;;;;;;;3.22;2.60;;;22.90;64.30;;;;;;6219612;28;87977;-69
2022/01/19 12:29:52;;;;;;;3.22;2.60;;;22.90;64.30;;;;;;6230695;28;89162;-69
2022/01/19 12:32:57;;;;;;;2.85;2.50;;;22.90;64.30;;;;;;6229450;28;89101;-69
2022/01/19 12:35:59;;;;;;;2.55;2.35;;;23.00;64.30;;;;;;6232297;28;89290;-69
2022/01/19 12:39:34;;;;;;;2.63;2.20;;;23.00;64.30;;;;;;6218556;28;88895;-70
2022/01/19 12:42:44;;;;;;;3.03;2.70;;;23.00;64.40;;;;;;6214979;28;88489;-69
2022/01/19 12:45:49;;;;;;;3.85;2.45;;;23.00;64.40;;;;;;6228817;28;87008;-70
2022/01/19 12:48:55;;;;;;;2.72;2.45;;;23.00;64.40;;;;;;6229402;28;88456;-69
2022/01/19 12:51:57;;;;;;;2.97;2.40;;;23.00;64.30;;;;;;6230641;28;90003;-69
2022/01/19 12:55:10;;;;;;;3.08;2.40;;;23.00;64.40;;;;;;6230538;28;89052;-69
2022/01/19 12:58:17;;;;;;;2.40;2.20;;;23.00;64.40;;;;;;6228901;28;88988;-69
2022/01/19 13:01:20;;;;;;;2.75;2.50;;;23.00;64.30;;;;;;6227595;28;88290;-69
2022/01/19 13:04:27;;;;;;;2.67;2.47;;;23.00;64.40;;;;;;6226760;28;89131;-69
2022/01/19 13:07:31;;;;;;;2.85;2.30;;;23.00;64.30;;;;;;6227112;28;89086;-70
2022/01/19 13:10:41;;;;;;;2.40;2.20;;;23.00;64.30;;;;;;6231708;28;88017;-69
2022/01/19 13:13:50;;;;;;;2.80;2.50;;;23.00;64.20;;;;;;6236401;28;88317;-70
2022/01/19 13:16:54;;;;;;;2.75;2.47;;;23.00;64.30;;;;;;6233513;28;89064;-70
2022/01/19 13:20:11;;;;;;;2.35;2.05;;;23.10;64.20;;;;;;6236806;28;89266;-69
2022/01/19 13:23:13;;;;;;;2.47;2.28;;;23.00;64.10;;;;;;6223420;28;90354;-69
2022/01/19 13:26:15;;;;;;;2.67;2.47;;;23.10;64.10;;;;;;6231741;28;88995;-70
2022/01/19 13:29:28;;;;;;;2.67;2.42;;;23.10;64.10;;;;;;6234373;28;89027;-70
2022/01/19 13:32:30;;;;;;;2.40;2.20;;;23.10;64.10;;;;;;6231925;28;88967;-70
2022/01/19 13:35:32;;;;;;;2.45;2.25;;;23.10;64.20;;;;;;6226134;28;89135;-69
2022/01/19 13:38:36;;;;;;;2.30;2.10;;;23.10;64.10;;;;;;6232371;28;89040;-69
2022/01/19 13:41:43;;;;;;;2.65;2.30;;;23.10;64.10;;;;;;6226713;28;89097;-69
2022/01/19 13:44:49;;;;;;;2.60;2.28;;;23.10;64.00;;;;;;6232891;28;88462;-69
2022/01/19 13:47:57;;;;;;;2.53;2.30;;;23.10;64.00;;;;;;6233529;28;88339;-70
2022/01/19 13:51:02;;;;;;;2.33;2.13;;;23.10;64.00;;;;;;6233896;28;89609;-69
2022/01/19 13:54:06;;;;;;;2.38;2.17;;;23.10;64.00;;;;;;6219958;28;88730;-69
2022/01/19 13:57:08;;;;;;;2.47;2.22;;;23.10;64.00;;;;;;6233802;28;89119;-70
2022/01/19 14:00:17;;;;;;;2.72;2.20;;;23.10;64.00;;;;;;6225208;28;89006;-70
2022/01/19 14:03:21;;;;;;;2.60;2.22;;;23.10;64.10;;;;;;6231995;28;89472;-69
2022/01/19 14:06:27;;;;;;;2.50;2.30;;;23.10;64.10;;;;;;6233887;28;89120;-70
2022/01/19 14:09:31;;;;;;;2.20;2.00;;;23.10;64.20;;;;;;6233659;28;89059;-70
2022/01/19 14:12:33;;;;;;;2.40;2.20;;;23.10;64.10;;;;;;6233019;28;88768;-69
2022/01/19 14:15:40;;;;;;;2.80;2.10;;;23.10;64.10;;;;;;6233886;28;88315;-69
2022/01/19 14:18:42;;;;;;;2.58;2.38;;;23.10;64.10;;;;;;6232037;28;89196;-70
2022/01/19 14:21:59;;;;;;;2.70;2.25;;;23.10;64.00;;;;;;6234835;28;87987;-69
2022/01/19 14:25:04;;;;;;;2.75;2.50;;;23.10;64.10;;;;;;6230854;28;90073;-70
2022/01/19 14:28:15;;;;;;;2.70;2.40;;;23.10;64.00;;;;;;6232579;28;89359;-69
2022/01/19 14:31:18;;;;;;;3.00;2.50;;;23.10;64.00;;;;;;6232357;28;89438;-70
2022/01/19 14:34:37;;;;;;;2.70;2.20;;;23.10;64.00;;;;;;6228705;28;87917;-69
2022/01/19 14:37:57;;;;;;;2.75;2.40;;;23.10;63.90;;;;;;6215502;28;89421;-70
2022/01/19 14:41:04;;;;;;;2.67;2.47;;;23.20;64.00;;;;;;6232469;28;87937;-69
2022/01/19 14:44:09;;;;;;;2.47;2.28;;;23.20;63.90;;;;;;6232602;28;89133;-69
2022/01/19 14:47:37;;;;;;;2.50;2.30;;;23.20;63.90;;;;;;6232220;28;88057;-70
2022/01/19 14:50:40;;;;;;;2.53;2.30;;;23.20;63.90;;;;;;6232747;28;89042;-70
2022/01/19 14:53:42;;;;;;;2.38;2.10;;;23.20;63.90;;;;;;6226731;28;89121;-70
2022/01/19 14:56:45;;;;;;;2.40;2.20;;;23.20;63.90;;;;;;6220234;28;88840;-70
2022/01/19 14:59:47;;;;;;;2.95;2.42;;;23.20;63.90;;;;;;6227202;28;88854;-70
2022/01/19 15:02:57;;;;;;;3.05;2.40;;;23.20;63.80;;;;;;6227547;28;87968;-69
2022/01/19 15:05:59;;;;;;;3.42;2.35;;;23.20;63.80;;;;;;6224363;28;89022;-70
2022/01/19 15:09:01;;;;;;;3.08;2.38;;;23.20;63.80;;;;;;6230961;28;87062;-70
2022/01/19 15:12:04;;;;;;;3.88;2.30;;;23.20;63.80;;;;;;6232844;28;88956;-69
2022/01/19 15:15:09;;;;;;;3.13;2.40;;;23.20;63.80;;;;;;6232315;28;87817;-69
2022/01/19 15:18:13;;;;;;;2.50;2.25;;;23.20;63.70;;;;;;6229012;28;88282;-70
2022/01/19 15:21:15;;;;;;;2.65;2.42;;;23.20;63.70;;;;;;6233580;28;89165;-70
2022/01/19 15:24:17;;;;;;;2.67;2.40;;;23.20;63.70;;;;;;6223220;28;89088;-69
2022/01/19 15:27:19;;;;;;;2.70;2.50;;;23.20;63.70;;;;;;6219329;28;88951;-69
2022/01/19 15:30:21;;;;;;;2.55;2.33;;;23.20;63.70;;;;;;6234314;28;88029;-69
2022/01/19 15:33:25;;;;;;;2.50;2.30;;;23.20;63.60;;;;;;6230973;28;88963;-69
2022/01/19 15:36:27;;;;;;;2.83;2.47;;;23.20;63.60;;;;;;6231458;28;89683;-69
2022/01/19 15:39:29;;;;;;;4.00;2.70;;;23.20;63.60;;;;;;6230215;28;87930;-70
2022/01/19 15:42:32;;;;;;;2.67;2.47;;;23.30;64.50;;;;;;6232205;28;89074;-69
2022/01/19 15:45:36;;;;;;;2.60;2.40;;;23.20;63.50;;;;;;6231643;28;89095;-69
2022/01/19 15:48:39;;;;;;;2.83;2.42;;;23.20;63.50;;;;;;6231985;28;88610;-70
2022/01/19 15:51:42;;;;;;;2.75;2.50;;;23.20;63.50;;;;;;6232917;28;89283;-70
2022/01/19 15:54:46;;;;;;;2.35;2.15;;;23.20;63.50;;;;;;6227763;28;89449;-70
2022/01/19 15:57:48;;;;;;;3.78;2.58;;;23.30;63.60;;;;;;6227846;28;90583;-70
2022/01/19 16:00:51;;;;;;;2.95;2.65;;;23.20;63.50;;;;;;6209045;28;89090;-70
2022/01/19 16:03:55;;;;;;;3.17;2.88;;;23.20;63.60;;;;;;6223556;28;89456;-70
2022/01/19 16:06:57;;;;;;;2.92;2.63;;;23.20;63.50;;;;;;6231682;28;89069;-71
2022/01/19 16:09:59;;;;;;;2.67;2.47;;;23.20;63.50;;;;;;6230267;28;87977;-70
2022/01/19 16:13:01;;;;;;;2.85;2.38;;;23.20;63.50;;;;;;6229079;28;89137;-70
2022/01/19 16:16:04;;;;;;;2.65;2.45;;;23.20;63.40;;;;;;6231930;28;89104;-69
2022/01/19 16:19:07;;;;;;;2.53;2.30;;;23.30;63.50;;;;;;6230163;28;88271;-70
2022/01/19 16:26:06;;;;;;;2.92;2.55;;;23.20;63.40;;;;;;6226738;28;89069;-70
2022/01/19 16:28:56;;;;;;;3.00;2.70;;;23.30;63.40;;;;;;6224601;28;88228;-70
2022/01/19 16:31:58;;;;;;;3.28;2.28;;;23.30;63.40;;;;;;6230106;28;89014;-70
2022/01/19 16:35:01;;;;;;;3.00;2.45;;;23.20;63.30;;;;;;6229619;28;88968;-70
2022/01/19 16:38:04;;;;;;;2.85;2.42;;;23.30;63.30;;;;;;6230651;28;89061;-69
2022/01/19 16:41:07;;;;;;;2.97;2.70;;;23.30;63.30;;;;;;6227200;28;89120;-70
2022/01/19 16:44:09;;;;;;;2.90;2.58;;;23.30;63.40;;;;;;6224340;28;88932;-70
2022/01/19 16:47:12;;;;;;;2.90;2.60;;;23.30;63.30;;;;;;6232907;28;89189;-70
2022/01/19 16:50:16;;;;;;;2.60;2.40;;;23.20;63.20;;;;;;6226131;28;88300;-69
2022/01/19 16:53:23;;;;;;;2.70;2.50;;;23.30;63.30;;;;;;6233356;28;89333;-69
2022/01/19 16:56:25;;;;;;;2.90;2.60;;;23.30;63.30;;;;;;6224612;28;89241;-70
2022/01/19 16:59:27;;;;;;;2.85;2.65;;;23.30;63.30;;;;;;6222598;28;89990;-70
2022/01/19 17:02:29;;;;;;;3.00;2.70;;;23.30;63.20;;;;;;6236440;28;87903;-70
2022/01/19 17:05:33;;;;;;;2.70;2.50;;;23.30;63.30;;;;;;6234919;28;88022;-70
2022/01/19 17:08:35;;;;;;;2.88;2.58;;;23.30;63.20;;;;;;6230960;28;89069;-70
2022/01/19 17:11:43;;;;;;;2.75;2.53;;;23.30;63.20;;;;;;6233021;28;89018;-70
2022/01/19 17:14:45;;;;;;;2.83;2.63;;;23.30;63.20;;;;;;6233502;28;87906;-69